createdAt,value
2022-08-17T00:00:49.516Z,273.80
2022-08-17T00:01:51.827Z,269.40
2022-08-17T00:02:36.493Z,274.10
2022-08-17T00:03:36.474Z,274.60
2022-08-17T00:04:35.477Z,265.90
2022-08-17T00:05:35.453Z,279.30
2022-08-17T00:06:35.453Z,270.60
2022-08-17T00:07:35.426Z,273.10
2022-08-17T00:08:35.495Z,273.60
2022-08-17T00:09:35.394Z,277.80
2022-08-17T00:10:35.466Z,287.50
2022-08-17T00:11:35.405Z,273.20
2022-08-17T00:12:44.421Z,267.40
2022-08-17T00:13:36.349Z,275.50
2022-08-17T00:14:35.348Z,293.50
2022-08-17T00:15:35.323Z,294.50
2022-08-17T00:16:56.467Z,290.90
2022-08-17T00:17:36.311Z,289.40
2022-08-17T00:19:01.433Z,288.00
2022-08-17T00:19:36.617Z,289.30
2022-08-17T00:20:35.257Z,291.60
2022-08-17T00:22:28.596Z,291.90
2022-08-17T00:22:36.905Z,289.20
2022-08-17T00:23:35.217Z,290.00
2022-08-17T00:24:35.207Z,290.90
2022-08-17T00:25:35.195Z,286.50
2022-08-17T00:26:45.239Z,296.70
2022-08-17T00:27:36.158Z,307.80
2022-08-17T00:28:35.158Z,298.60
2022-08-17T00:29:35.135Z,298.70
2022-08-17T00:30:50.810Z,286.90
2022-08-17T00:31:36.119Z,294.80
2022-08-17T00:33:15.777Z,295.10
2022-08-17T00:33:36.099Z,299.60
2022-08-17T00:34:35.077Z,292.30
2022-08-17T00:35:35.061Z,298.60
2022-08-17T00:36:35.048Z,300.50
2022-08-17T00:37:35.029Z,297.40
2022-08-17T00:38:35.020Z,294.90
2022-08-17T00:39:35.047Z,296.20
2022-08-17T00:40:39.864Z,299.10
2022-08-17T00:41:36.058Z,303.70
2022-08-17T00:42:35.972Z,308.90
2022-08-17T00:43:34.958Z,299.50
2022-08-17T00:44:34.951Z,301.90
2022-08-17T00:45:34.930Z,297.20
2022-08-17T00:46:34.923Z,305.30
2022-08-17T00:47:34.899Z,295.90
2022-08-17T00:48:34.895Z,284.30
2022-08-17T00:49:34.879Z,284.80
2022-08-17T00:50:34.861Z,285.80
2022-08-17T00:51:34.920Z,285.70
2022-08-17T00:52:37.986Z,282.90
2022-08-17T00:53:34.842Z,301.40
2022-08-17T00:54:42.000Z,286.70
2022-08-17T00:55:35.801Z,287.90
2022-08-17T00:56:34.801Z,295.60
2022-08-17T00:57:34.786Z,294.70
2022-08-17T00:58:36.127Z,287.50
2022-08-17T00:59:34.752Z,283.40
2022-08-17T01:00:34.742Z,289.80
2022-08-17T01:01:34.756Z,287.80
2022-08-17T01:02:40.375Z,282.80
2022-08-17T01:03:35.847Z,291.80
2022-08-17T01:04:34.703Z,292.50
2022-08-17T01:05:34.673Z,292.00
2022-08-17T01:06:34.662Z,295.40
2022-08-17T01:07:34.651Z,285.20
2022-08-17T01:08:34.632Z,291.20
2022-08-17T01:09:34.622Z,294.60
2022-08-17T01:11:00.335Z,283.40
2022-08-17T01:11:35.592Z,301.50
2022-08-17T01:12:34.584Z,297.70
2022-08-17T01:13:40.359Z,292.40
2022-08-17T01:14:35.704Z,292.00
2022-08-17T01:15:34.536Z,295.40
2022-08-17T01:16:34.534Z,297.20
2022-08-17T01:17:34.517Z,295.60
2022-08-17T01:18:34.533Z,295.40
2022-08-17T01:19:34.491Z,287.60
2022-08-17T01:20:43.061Z,302.60
2022-08-17T01:21:35.462Z,291.70
2022-08-17T01:22:34.454Z,290.90
2022-08-17T01:23:34.452Z,293.70
2022-08-17T01:24:34.434Z,296.70
2022-08-17T01:25:37.755Z,291.30
2022-08-17T01:26:34.400Z,294.30
2022-08-17T01:27:34.387Z,296.90
2022-08-17T01:28:54.372Z,297.10
2022-08-17T01:29:35.365Z,304.70
2022-08-17T01:30:58.226Z,293.60
2022-08-17T01:31:35.336Z,299.60
2022-08-17T01:32:34.325Z,308.30
2022-08-17T01:33:34.316Z,306.40
2022-08-17T01:34:42.984Z,294.20
2022-08-17T01:35:35.288Z,304.80
2022-08-17T01:36:34.367Z,315.00
2022-08-17T01:37:34.256Z,311.60
2022-08-17T01:38:34.245Z,301.20
2022-08-17T01:39:34.276Z,312.10
2022-08-17T01:40:34.216Z,318.40
2022-08-17T01:41:34.236Z,307.40
2022-08-17T01:42:34.195Z,310.20
2022-08-17T01:43:34.186Z,315.00
2022-08-17T01:44:34.159Z,320.20
2022-08-17T01:45:34.162Z,311.40
2022-08-17T01:46:34.138Z,310.40
2022-08-17T01:47:36.086Z,309.80
2022-08-17T01:48:34.108Z,312.50
2022-08-17T01:49:34.098Z,309.30
2022-08-17T01:50:34.078Z,319.50
2022-08-17T01:51:34.091Z,321.80
2022-08-17T01:52:34.062Z,317.60
2022-08-17T01:53:34.049Z,324.60
2022-08-17T01:54:34.039Z,327.50
2022-08-17T01:55:34.032Z,325.70
2022-08-17T01:56:34.010Z,335.00
2022-08-17T01:57:33.999Z,322.10
2022-08-17T01:58:34.050Z,326.90
2022-08-17T01:59:33.972Z,329.20
2022-08-17T02:00:46.734Z,323.30
2022-08-17T02:01:34.991Z,320.30
2022-08-17T02:02:33.932Z,323.90
2022-08-17T02:03:33.920Z,324.30
2022-08-17T02:04:33.937Z,318.30
2022-08-17T02:05:33.891Z,328.20
2022-08-17T02:06:52.945Z,313.80
2022-08-17T02:07:59.543Z,316.00
2022-08-17T02:08:37.044Z,322.00
2022-08-17T02:09:33.841Z,320.30
2022-08-17T02:10:34.354Z,321.80
2022-08-17T02:11:33.823Z,327.40
2022-08-17T02:12:38.124Z,321.60
2022-08-17T02:13:34.794Z,316.00
2022-08-17T02:14:33.771Z,315.40
2022-08-17T02:15:33.762Z,327.10
2022-08-17T02:16:37.189Z,320.20
2022-08-17T02:17:33.742Z,320.30
2022-08-17T02:18:33.724Z,316.90
2022-08-17T02:19:33.985Z,311.90
2022-08-17T02:20:41.552Z,312.80
2022-08-17T02:21:34.685Z,324.20
2022-08-17T02:22:33.671Z,312.00
2022-08-17T02:23:33.664Z,314.70
2022-08-17T02:24:58.499Z,319.50
2022-08-17T02:25:34.634Z,317.50
2022-08-17T02:26:33.614Z,319.00
2022-08-17T02:27:33.613Z,325.20
2022-08-17T02:28:33.594Z,325.00
2022-08-17T02:29:33.596Z,329.20
2022-08-17T02:30:59.330Z,326.90
2022-08-17T02:31:34.556Z,321.90
2022-08-17T02:32:33.544Z,320.80
2022-08-17T02:33:43.022Z,327.00
2022-08-17T02:34:34.549Z,317.70
2022-08-17T02:35:33.503Z,323.10
2022-08-17T02:36:33.490Z,328.30
2022-08-17T02:37:33.487Z,336.00
2022-08-17T02:38:33.458Z,329.70
2022-08-17T02:39:33.518Z,332.00
2022-08-17T02:40:35.910Z,332.60
2022-08-17T02:41:33.565Z,333.00
2022-08-17T02:42:33.426Z,332.20
2022-08-17T02:43:33.395Z,331.30
2022-08-17T02:44:39.766Z,328.60
2022-08-17T02:45:34.367Z,333.50
2022-08-17T02:46:33.355Z,341.10
2022-08-17T02:47:33.355Z,328.00
2022-08-17T02:48:33.335Z,324.10
2022-08-17T02:49:33.327Z,329.60
2022-08-17T02:50:33.296Z,327.10
2022-08-17T02:51:33.299Z,329.70
2022-08-17T02:52:42.676Z,327.20
2022-08-17T02:53:35.827Z,325.40
2022-08-17T02:54:39.814Z,321.70
2022-08-17T02:55:34.239Z,315.80
2022-08-17T02:56:33.227Z,324.80
2022-08-17T02:57:33.215Z,335.00
2022-08-17T02:58:35.226Z,333.00
2022-08-17T02:59:33.188Z,315.90
2022-08-17T03:00:33.179Z,330.60
2022-08-17T03:01:33.210Z,323.00
2022-08-17T03:02:33.148Z,321.70
2022-08-17T03:03:33.227Z,328.00
2022-08-17T03:04:35.263Z,319.70
2022-08-17T03:05:33.123Z,328.20
2022-08-17T03:06:33.095Z,322.50
2022-08-17T03:07:33.087Z,324.40
2022-08-17T03:08:33.079Z,322.40
2022-08-17T03:09:33.060Z,316.60
2022-08-17T03:10:33.039Z,314.60
2022-08-17T03:11:33.038Z,320.30
2022-08-17T03:12:33.018Z,323.50
2022-08-17T03:13:33.008Z,333.60
2022-08-17T03:14:35.993Z,317.30
2022-08-17T03:15:32.989Z,318.90
2022-08-17T03:16:32.970Z,330.60
2022-08-17T03:17:32.960Z,326.10
2022-08-17T03:18:32.941Z,336.90
2022-08-17T03:19:32.931Z,329.00
2022-08-17T03:20:32.919Z,327.60
2022-08-17T03:21:32.910Z,327.80
2022-08-17T03:22:36.599Z,327.30
2022-08-17T03:23:32.881Z,332.90
2022-08-17T03:24:32.861Z,330.20
2022-08-17T03:25:32.941Z,316.70
2022-08-17T03:26:32.843Z,331.60
2022-08-17T03:27:32.831Z,338.20
2022-08-17T03:28:32.811Z,328.70
2022-08-17T03:29:32.803Z,331.90
2022-08-17T03:30:32.791Z,330.90
2022-08-17T03:31:32.785Z,327.00
2022-08-17T03:32:32.760Z,327.10
2022-08-17T03:33:32.773Z,334.80
2022-08-17T03:34:32.732Z,330.00
2022-08-17T03:35:32.722Z,336.70
2022-08-17T03:36:32.833Z,323.60
2022-08-17T03:37:32.720Z,345.40
2022-08-17T03:38:39.451Z,341.60
2022-08-17T03:39:33.724Z,338.80
2022-08-17T03:40:41.821Z,339.30
2022-08-17T03:41:33.643Z,342.40
2022-08-17T03:42:32.967Z,333.40
2022-08-17T03:43:32.626Z,340.20
2022-08-17T03:44:32.604Z,350.50
2022-08-17T03:45:32.594Z,350.40
2022-08-17T03:46:34.988Z,348.00
2022-08-17T03:47:35.646Z,355.40
2022-08-17T03:48:32.559Z,337.70
2022-08-17T03:49:32.544Z,355.70
2022-08-17T03:50:32.536Z,357.30
2022-08-17T03:51:33.495Z,347.80
2022-08-17T03:52:32.504Z,352.00
2022-08-17T03:53:32.494Z,372.50
2022-08-17T03:54:32.484Z,364.30
2022-08-17T03:55:36.009Z,367.90
2022-08-17T03:56:32.454Z,359.20
2022-08-17T03:57:32.478Z,371.60
2022-08-17T03:58:32.705Z,360.90
2022-08-17T03:59:32.423Z,362.60
2022-08-17T04:00:32.405Z,370.00
2022-08-17T04:01:32.483Z,359.90
2022-08-17T04:02:32.397Z,350.70
2022-08-17T04:03:32.389Z,348.90
2022-08-17T04:04:32.346Z,357.90
2022-08-17T04:05:32.346Z,357.40
2022-08-17T04:06:32.326Z,374.60
2022-08-17T04:07:32.318Z,356.70
2022-08-17T04:08:32.301Z,354.80
2022-08-17T04:09:32.383Z,365.40
2022-08-17T04:10:33.917Z,367.80
2022-08-17T04:11:32.287Z,367.10
2022-08-17T04:12:32.262Z,355.20
2022-08-17T04:13:32.240Z,362.40
2022-08-17T04:14:32.229Z,356.30
2022-08-17T04:15:32.207Z,362.10
2022-08-17T04:16:32.197Z,356.40
2022-08-17T04:17:32.194Z,358.90
2022-08-17T04:18:32.187Z,363.70
2022-08-17T04:19:32.159Z,348.70
2022-08-17T04:20:32.466Z,353.10
2022-08-17T04:21:32.184Z,336.10
2022-08-17T04:22:34.359Z,342.50
2022-08-17T04:23:32.110Z,343.90
2022-08-17T04:24:32.100Z,348.80
2022-08-17T04:25:32.087Z,340.10
2022-08-17T04:26:54.101Z,337.80
2022-08-17T04:27:33.060Z,349.80
2022-08-17T04:28:32.041Z,338.30
2022-08-17T04:29:54.763Z,350.90
2022-08-17T04:30:33.029Z,346.40
2022-08-17T04:31:32.012Z,348.70
2022-08-17T04:33:02.212Z,337.00
2022-08-17T04:33:32.979Z,345.60
2022-08-17T04:34:31.960Z,335.30
2022-08-17T04:35:31.952Z,341.80
2022-08-17T04:36:31.942Z,325.10
2022-08-17T04:37:31.930Z,336.40
2022-08-17T04:38:31.921Z,339.20
2022-08-17T04:39:33.835Z,329.50
2022-08-17T04:40:31.891Z,334.20
2022-08-17T04:41:32.271Z,336.20
2022-08-17T04:42:31.861Z,343.50
2022-08-17T04:43:31.852Z,343.40
2022-08-17T04:44:37.463Z,342.50
2022-08-17T04:45:32.870Z,345.20
2022-08-17T04:46:31.810Z,340.40
2022-08-17T04:47:31.803Z,342.70
2022-08-17T04:48:35.676Z,343.10
2022-08-17T04:49:32.771Z,336.90
2022-08-17T04:50:31.754Z,341.80
2022-08-17T04:51:31.765Z,332.30
2022-08-17T04:52:43.553Z,333.40
2022-08-17T04:53:32.734Z,321.60
2022-08-17T04:54:31.718Z,331.60
2022-08-17T04:55:31.693Z,327.80
2022-08-17T04:56:31.684Z,332.40
2022-08-17T04:57:31.672Z,330.10
2022-08-17T04:58:32.653Z,330.10
2022-08-17T04:59:31.643Z,344.70
2022-08-17T05:00:31.637Z,336.50
2022-08-17T05:01:31.647Z,332.70
2022-08-17T05:02:31.603Z,333.60
2022-08-17T05:03:31.962Z,334.40
2022-08-17T05:04:34.325Z,332.20
2022-08-17T05:05:31.563Z,328.30
2022-08-17T05:06:31.549Z,327.20
2022-08-17T05:07:31.795Z,339.10
2022-08-17T05:08:31.514Z,333.60
2022-08-17T05:09:31.514Z,339.00
2022-08-17T05:10:31.495Z,340.30
2022-08-17T05:11:31.492Z,343.50
2022-08-17T05:12:31.486Z,333.60
2022-08-17T05:13:31.468Z,328.10
2022-08-17T05:14:32.313Z,319.10
2022-08-17T05:15:33.107Z,324.10
2022-08-17T05:16:31.415Z,321.00
2022-08-17T05:17:31.416Z,315.10
2022-08-17T05:18:31.386Z,324.40
2022-08-17T05:19:31.387Z,319.50
2022-08-17T05:20:31.378Z,314.20
2022-08-17T05:21:31.357Z,320.30
2022-08-17T05:22:31.338Z,313.50
2022-08-17T05:23:34.964Z,299.70
2022-08-17T05:24:42.878Z,297.60
2022-08-17T05:25:32.805Z,287.60
2022-08-17T05:26:31.340Z,292.30
2022-08-17T05:27:34.426Z,288.10
2022-08-17T05:28:31.274Z,285.50
2022-08-17T05:29:35.309Z,282.00
2022-08-17T05:30:31.239Z,287.60
2022-08-17T05:31:31.245Z,279.50
2022-08-17T05:32:38.921Z,285.40
2022-08-17T05:33:32.221Z,294.00
2022-08-17T05:34:31.187Z,284.80
2022-08-17T05:35:31.461Z,290.30
2022-08-17T05:36:37.986Z,291.50
2022-08-17T05:37:32.148Z,282.10
2022-08-17T05:38:31.130Z,294.70
2022-08-17T05:39:31.165Z,278.60
2022-08-17T05:40:32.756Z,291.70
2022-08-17T05:41:31.103Z,291.80
2022-08-17T05:42:31.081Z,288.60
2022-08-17T05:43:31.077Z,287.70
2022-08-17T05:44:31.061Z,292.60
2022-08-17T05:45:42.817Z,288.70
2022-08-17T05:46:32.101Z,307.00
2022-08-17T05:47:31.023Z,298.10
2022-08-17T05:48:35.689Z,293.90
2022-08-17T05:49:31.992Z,290.10
2022-08-17T05:50:30.981Z,285.90
2022-08-17T05:51:30.966Z,293.60
2022-08-17T05:52:30.972Z,295.10
2022-08-17T05:53:30.942Z,297.00
2022-08-17T05:54:30.932Z,303.30
2022-08-17T05:55:30.912Z,305.10
2022-08-17T05:56:30.903Z,296.90
2022-08-17T05:57:31.214Z,303.20
2022-08-17T05:58:30.872Z,299.40
2022-08-17T05:59:30.882Z,305.80
2022-08-17T06:00:31.291Z,306.80
2022-08-17T06:01:30.931Z,295.40
2022-08-17T06:02:30.823Z,294.30
2022-08-17T06:03:30.815Z,298.50
2022-08-17T06:04:30.804Z,298.70
2022-08-17T06:05:30.831Z,305.50
2022-08-17T06:06:31.596Z,308.50
2022-08-17T06:07:30.758Z,306.30
2022-08-17T06:08:33.937Z,322.20
2022-08-17T06:09:33.789Z,326.90
2022-08-17T06:10:30.724Z,333.90
2022-08-17T06:11:30.707Z,335.60
2022-08-17T06:12:30.699Z,319.50
2022-08-17T06:13:30.679Z,331.90
2022-08-17T06:14:30.729Z,322.80
2022-08-17T06:15:30.657Z,316.90
2022-08-17T06:16:34.221Z,315.90
2022-08-17T06:17:30.631Z,326.80
2022-08-17T06:18:30.619Z,319.60
2022-08-17T06:19:30.666Z,317.80
2022-08-17T06:20:30.596Z,331.30
2022-08-17T06:21:32.222Z,330.20
2022-08-17T06:22:30.573Z,321.80
2022-08-17T06:23:30.557Z,319.20
2022-08-17T06:24:30.547Z,327.90
2022-08-17T06:25:30.538Z,334.30
2022-08-17T06:26:38.264Z,331.40
2022-08-17T06:27:31.498Z,344.10
2022-08-17T06:28:30.494Z,338.20
2022-08-17T06:29:30.473Z,350.40
2022-08-17T06:30:57.385Z,347.80
2022-08-17T06:31:31.473Z,348.30
2022-08-17T06:32:30.439Z,348.90
2022-08-17T06:33:30.420Z,352.10
2022-08-17T06:34:30.422Z,349.70
2022-08-17T06:35:31.985Z,356.00
2022-08-17T06:36:30.381Z,348.40
2022-08-17T06:37:30.370Z,348.00
2022-08-17T06:38:38.039Z,349.10
2022-08-17T06:39:31.421Z,342.80
2022-08-17T06:40:30.341Z,344.80
2022-08-17T06:41:30.411Z,347.00
2022-08-17T06:42:54.790Z,361.80
2022-08-17T06:43:31.302Z,363.50
2022-08-17T06:44:43.151Z,362.80
2022-08-17T06:45:31.275Z,364.70
2022-08-17T06:46:30.268Z,364.40
2022-08-17T06:47:30.240Z,356.60
2022-08-17T06:48:30.233Z,354.80
2022-08-17T06:49:30.222Z,358.00
2022-08-17T06:50:30.309Z,372.50
2022-08-17T06:51:30.196Z,374.30
2022-08-17T06:52:46.310Z,369.20
2022-08-17T06:53:31.163Z,351.70
2022-08-17T06:54:30.163Z,328.60
2022-08-17T06:55:34.432Z,320.40
2022-08-17T06:56:54.227Z,289.40
2022-08-17T06:57:31.114Z,268.20
2022-08-17T06:58:30.108Z,296.70
2022-08-17T06:59:54.204Z,276.40
2022-08-17T07:00:31.126Z,276.90
2022-08-17T07:01:30.128Z,288.10
2022-08-17T07:02:52.015Z,276.10
2022-08-17T07:03:31.146Z,283.40
2022-08-17T07:04:30.037Z,274.90
2022-08-17T07:05:30.005Z,262.40
2022-08-17T07:06:29.996Z,269.30
2022-08-17T07:07:29.986Z,264.10
2022-08-17T07:08:32.904Z,254.70
2022-08-17T07:09:29.957Z,258.20
2022-08-17T07:10:29.957Z,252.50
2022-08-17T07:11:29.954Z,259.30
2022-08-17T07:12:29.931Z,260.10
2022-08-17T07:13:29.906Z,256.80
2022-08-17T07:14:29.970Z,252.30
2022-08-17T07:15:29.888Z,260.60
2022-08-17T07:16:29.878Z,257.20
2022-08-17T07:17:46.752Z,263.40
2022-08-17T07:18:30.858Z,246.00
2022-08-17T07:19:29.839Z,248.40
2022-08-17T07:20:29.830Z,246.20
2022-08-17T07:21:29.809Z,251.80
2022-08-17T07:22:29.810Z,240.20
2022-08-17T07:23:30.788Z,243.90
2022-08-17T07:24:30.660Z,241.60
2022-08-17T07:25:30.015Z,236.90
2022-08-17T07:26:29.752Z,235.40
2022-08-17T07:27:29.741Z,232.00
2022-08-17T07:28:29.720Z,243.90
2022-08-17T07:29:29.711Z,238.50
2022-08-17T07:30:29.703Z,224.90
2022-08-17T07:31:29.723Z,216.80
2022-08-17T07:32:29.671Z,210.20
2022-08-17T07:33:29.702Z,213.00
2022-08-17T07:34:29.651Z,214.50
2022-08-17T07:35:37.942Z,200.80
2022-08-17T07:36:30.721Z,207.80
2022-08-17T07:37:29.604Z,203.40
2022-08-17T07:38:29.593Z,202.10
2022-08-17T07:39:29.627Z,202.30
2022-08-17T07:40:29.610Z,207.60
2022-08-17T07:41:53.186Z,210.50
2022-08-17T07:42:30.554Z,224.90
2022-08-17T07:43:29.722Z,224.40
2022-08-17T07:44:29.524Z,233.00
2022-08-17T07:45:29.504Z,239.40
2022-08-17T07:46:29.504Z,248.40
2022-08-17T07:47:29.737Z,244.00
2022-08-17T07:48:29.464Z,238.50
2022-08-17T07:49:29.447Z,254.40
2022-08-17T07:50:29.440Z,263.00
2022-08-17T07:51:29.440Z,257.90
2022-08-17T07:52:50.524Z,262.00
2022-08-17T07:53:30.397Z,263.60
2022-08-17T07:54:29.395Z,257.60
2022-08-17T07:55:29.417Z,264.00
2022-08-17T07:56:34.396Z,261.10
2022-08-17T07:57:30.639Z,269.30
2022-08-17T07:58:29.347Z,264.40
2022-08-17T07:59:33.281Z,262.60
2022-08-17T08:00:32.191Z,259.20
2022-08-17T08:01:41.868Z,253.90
2022-08-17T08:02:33.596Z,252.80
2022-08-17T08:03:29.269Z,247.70
2022-08-17T08:05:49.483Z,244.70
2022-08-17T08:06:30.230Z,243.60
2022-08-17T08:07:29.223Z,246.70
2022-08-17T08:08:29.318Z,240.90
2022-08-17T08:09:29.202Z,225.40
2022-08-17T08:10:29.198Z,238.80
2022-08-17T08:11:29.223Z,248.60
2022-08-17T08:12:33.306Z,261.00
2022-08-17T08:13:29.141Z,261.20
2022-08-17T08:14:29.133Z,269.30
2022-08-17T08:15:29.122Z,266.70
2022-08-17T08:16:29.126Z,267.10
2022-08-17T08:17:29.093Z,265.50
2022-08-17T08:18:54.531Z,256.90
2022-08-17T08:19:30.142Z,257.10
2022-08-17T08:20:47.706Z,244.40
2022-08-17T08:21:30.044Z,253.00
2022-08-17T08:22:29.034Z,244.70
2022-08-17T08:23:29.028Z,251.40
2022-08-17T08:24:30.722Z,244.90
2022-08-17T08:25:28.995Z,247.20
2022-08-17T08:26:28.997Z,245.80
2022-08-17T08:27:28.979Z,239.40
2022-08-17T08:28:28.955Z,239.70
2022-08-17T08:29:28.947Z,236.40
2022-08-17T08:30:29.015Z,229.30
2022-08-17T08:31:28.919Z,218.90
2022-08-17T08:32:28.909Z,226.90
2022-08-17T08:33:28.896Z,220.80
2022-08-17T08:34:47.415Z,216.00
2022-08-17T08:35:29.877Z,211.20
2022-08-17T08:37:12.720Z,210.30
2022-08-17T08:37:35.581Z,214.70
2022-08-17T08:38:29.850Z,212.70
2022-08-17T08:39:28.849Z,221.30
2022-08-17T08:40:28.818Z,228.80
2022-08-17T08:41:28.889Z,228.10
2022-08-17T08:42:28.790Z,207.70
2022-08-17T08:43:28.784Z,213.30
2022-08-17T08:45:01.051Z,203.50
2022-08-17T08:45:29.754Z,199.40
2022-08-17T08:46:28.738Z,203.90
2022-08-17T08:47:28.720Z,218.40
2022-08-17T08:48:52.945Z,199.20
2022-08-17T08:49:51.884Z,196.00
2022-08-17T08:50:37.259Z,192.40
2022-08-17T08:51:29.785Z,185.30
2022-08-17T08:52:28.665Z,200.40
2022-08-17T08:53:28.645Z,193.70
2022-08-17T08:54:28.643Z,194.60
2022-08-17T08:55:28.622Z,183.00
2022-08-17T08:56:28.618Z,171.50
2022-08-17T08:57:33.769Z,170.70
2022-08-17T08:58:31.884Z,175.60
2022-08-17T08:59:29.575Z,165.50
2022-08-17T09:00:28.577Z,162.20
2022-08-17T09:01:28.645Z,160.30
2022-08-17T09:02:28.606Z,162.70
2022-08-17T09:03:51.940Z,154.50
2022-08-17T09:04:29.516Z,146.90
2022-08-17T09:05:28.508Z,147.70
2022-08-17T09:06:32.607Z,145.70
2022-08-17T09:07:29.478Z,138.60
2022-08-17T09:08:28.470Z,135.80
2022-08-17T09:09:28.444Z,134.60
2022-08-17T09:10:28.437Z,141.20
2022-08-17T09:11:28.427Z,128.90
2022-08-17T09:12:28.420Z,115.60
2022-08-17T09:13:29.041Z,113.70
2022-08-17T09:14:29.311Z,111.30
2022-08-17T09:15:28.371Z,106.20
2022-08-17T09:16:28.372Z,109.10
2022-08-17T09:17:28.347Z,104.60
2022-08-17T09:19:01.701Z,100.40
2022-08-17T09:19:29.342Z,97.70
2022-08-17T09:20:28.795Z,101.40
2022-08-17T09:21:28.298Z,107.00
2022-08-17T09:22:29.293Z,100.90
2022-08-17T09:23:28.274Z,104.20
2022-08-17T09:24:28.372Z,98.20
2022-08-17T09:25:28.255Z,99.40
2022-08-17T09:26:28.240Z,101.60
2022-08-17T09:27:28.230Z,99.80
2022-08-17T09:28:28.212Z,102.30
2022-08-17T09:29:28.205Z,108.10
2022-08-17T09:30:28.202Z,101.10
2022-08-17T09:31:32.824Z,104.50
2022-08-17T09:32:29.163Z,104.30
2022-08-17T09:33:28.142Z,104.30
2022-08-17T09:34:32.157Z,100.80
2022-08-17T09:35:36.669Z,108.50
2022-08-17T09:36:29.115Z,106.30
2022-08-17T09:37:28.106Z,104.40
2022-08-17T09:38:31.839Z,104.00
2022-08-17T09:39:28.147Z,96.60
2022-08-17T09:40:28.065Z,99.70
2022-08-17T09:41:28.065Z,99.50
2022-08-17T09:42:28.049Z,99.70
2022-08-17T09:43:28.027Z,98.60
2022-08-17T09:44:28.017Z,89.80
2022-08-17T09:45:27.998Z,91.00
2022-08-17T09:46:28.332Z,89.60
2022-08-17T09:47:27.980Z,89.80
2022-08-17T09:48:27.970Z,87.40
2022-08-17T09:49:27.952Z,91.10
2022-08-17T09:51:03.288Z,89.50
2022-08-17T09:51:28.918Z,89.70
2022-08-17T09:52:27.919Z,89.40
2022-08-17T09:53:31.645Z,84.10
2022-08-17T09:54:44.473Z,79.80
2022-08-17T09:55:28.906Z,88.80
2022-08-17T09:56:27.861Z,78.90
2022-08-17T09:57:31.100Z,78.00
2022-08-17T09:58:29.145Z,77.80
2022-08-17T09:59:27.822Z,79.40
2022-08-17T10:00:28.822Z,80.80
2022-08-17T10:01:27.891Z,77.30
2022-08-17T10:02:27.791Z,79.70
2022-08-17T10:03:27.789Z,78.00
2022-08-17T10:04:29.743Z,79.10
2022-08-17T10:05:27.764Z,76.70
2022-08-17T10:06:27.742Z,75.90
2022-08-17T10:07:27.744Z,72.10
2022-08-17T10:08:30.903Z,66.50
2022-08-17T10:09:27.711Z,74.40
2022-08-17T10:10:27.697Z,71.00
2022-08-17T10:11:33.384Z,70.90
2022-08-17T10:12:29.837Z,77.20
2022-08-17T10:13:27.681Z,84.20
2022-08-17T10:14:36.720Z,79.00
2022-08-17T10:15:28.635Z,86.80
2022-08-17T10:16:27.621Z,83.80
2022-08-17T10:17:27.616Z,79.30
2022-08-17T10:18:31.864Z,79.70
2022-08-17T10:19:28.732Z,80.20
2022-08-17T10:20:27.567Z,71.70
2022-08-17T10:21:27.568Z,80.60
2022-08-17T10:22:34.571Z,81.50
2022-08-17T10:23:28.539Z,80.80
2022-08-17T10:24:27.539Z,87.80
2022-08-17T10:25:37.792Z,85.70
2022-08-17T10:26:28.500Z,84.70
2022-08-17T10:27:28.491Z,86.70
2022-08-17T10:28:30.032Z,86.60
2022-08-17T10:29:28.935Z,91.80
2022-08-17T10:30:27.842Z,90.70
2022-08-17T10:31:35.862Z,93.80
2022-08-17T10:32:28.435Z,81.50
2022-08-17T10:33:27.429Z,86.80
2022-08-17T10:34:27.401Z,97.80
2022-08-17T10:35:27.399Z,100.20
2022-08-17T10:36:27.373Z,93.70
2022-08-17T10:37:27.373Z,97.20
2022-08-17T10:38:27.352Z,99.70
2022-08-17T10:39:27.375Z,109.00
2022-08-17T10:40:27.341Z,103.10
2022-08-17T10:41:27.403Z,111.00
2022-08-17T10:42:30.362Z,106.60
2022-08-17T10:43:28.283Z,107.00
2022-08-17T10:44:38.095Z,107.20
2022-08-17T10:45:28.275Z,104.90
2022-08-17T10:46:31.352Z,100.90
2022-08-17T10:47:27.251Z,98.70
2022-08-17T10:48:27.228Z,96.00
2022-08-17T10:49:27.248Z,102.90
2022-08-17T10:50:27.206Z,103.10
2022-08-17T10:51:27.196Z,103.70
2022-08-17T10:52:27.603Z,102.90
2022-08-17T10:53:27.168Z,108.10
2022-08-17T10:54:27.148Z,112.80
2022-08-17T10:55:27.149Z,106.90
2022-08-17T10:56:27.160Z,112.30
2022-08-17T10:57:27.125Z,106.10
2022-08-17T10:58:27.235Z,106.70
2022-08-17T10:59:27.099Z,112.40
2022-08-17T11:00:27.795Z,113.40
2022-08-17T11:01:27.079Z,107.70
2022-08-17T11:02:27.068Z,96.80
2022-08-17T11:03:27.063Z,100.70
2022-08-17T11:04:27.041Z,107.70
2022-08-17T11:05:27.029Z,110.00
2022-08-17T11:06:27.000Z,114.80
2022-08-17T11:07:27.002Z,121.10
2022-08-17T11:08:27.528Z,113.80
2022-08-17T11:09:26.968Z,108.00
2022-08-17T11:10:27.072Z,105.50
2022-08-17T11:11:26.942Z,106.80
2022-08-17T11:12:26.930Z,114.20
2022-08-17T11:13:27.030Z,117.20
2022-08-17T11:14:26.921Z,114.30
2022-08-17T11:15:26.929Z,110.20
2022-08-17T11:16:26.873Z,112.90
2022-08-17T11:17:26.869Z,111.00
2022-08-17T11:18:26.855Z,115.20
2022-08-17T11:19:26.894Z,117.50
2022-08-17T11:20:26.851Z,112.40
2022-08-17T11:21:26.814Z,109.30
2022-08-17T11:22:31.287Z,119.30
2022-08-17T11:23:28.038Z,107.60
2022-08-17T11:24:26.777Z,96.90
2022-08-17T11:25:26.778Z,98.60
2022-08-17T11:26:26.747Z,106.50
2022-08-17T11:27:27.166Z,110.00
2022-08-17T11:28:26.726Z,110.30
2022-08-17T11:29:26.721Z,106.00
2022-08-17T11:30:26.811Z,105.40
2022-08-17T11:31:38.662Z,103.20
2022-08-17T11:32:27.676Z,97.90
2022-08-17T11:33:26.673Z,100.30
2022-08-17T11:34:26.840Z,97.20
2022-08-17T11:35:26.877Z,105.00
2022-08-17T11:36:26.626Z,104.30
2022-08-17T11:37:26.617Z,105.00
2022-08-17T11:38:28.492Z,102.40
2022-08-17T11:39:26.631Z,109.90
2022-08-17T11:40:26.582Z,112.00
2022-08-17T11:41:26.571Z,112.90
2022-08-17T11:42:26.556Z,111.10
2022-08-17T11:43:26.564Z,111.90
2022-08-17T11:44:26.530Z,108.40
2022-08-17T11:45:31.714Z,117.20
2022-08-17T11:46:27.531Z,118.90
2022-08-17T11:47:26.493Z,118.80
2022-08-17T11:48:28.679Z,120.10
2022-08-17T11:49:26.472Z,120.30
2022-08-17T11:50:27.971Z,123.70
2022-08-17T11:51:26.454Z,133.10
2022-08-17T11:52:26.434Z,127.30
2022-08-17T11:53:26.436Z,131.50
2022-08-17T11:54:34.582Z,132.70
2022-08-17T11:55:38.249Z,135.60
2022-08-17T11:56:27.390Z,141.50
2022-08-17T11:57:26.432Z,133.10
2022-08-17T11:58:26.362Z,134.30
2022-08-17T11:59:26.345Z,144.00
2022-08-17T12:00:26.364Z,147.00
2022-08-17T12:01:26.318Z,141.90
2022-08-17T12:02:26.321Z,145.00
2022-08-17T12:03:26.386Z,150.70
2022-08-17T12:04:26.341Z,146.20
2022-08-17T12:05:26.287Z,155.00
2022-08-17T12:06:30.338Z,151.60
2022-08-17T12:07:26.248Z,156.40
2022-08-17T12:08:26.240Z,155.30
2022-08-17T12:09:26.227Z,155.90
2022-08-17T12:10:26.237Z,160.80
2022-08-17T12:12:01.623Z,158.60
2022-08-17T12:12:27.177Z,158.10
2022-08-17T12:13:30.496Z,160.30
2022-08-17T12:14:51.371Z,156.00
2022-08-17T12:15:27.150Z,153.30
2022-08-17T12:16:26.129Z,154.10
2022-08-17T12:17:41.070Z,160.20
2022-08-17T12:18:27.108Z,158.60
2022-08-17T12:19:26.092Z,161.10
2022-08-17T12:20:26.084Z,161.10
2022-08-17T12:21:26.073Z,155.10
2022-08-17T12:22:26.072Z,156.40
2022-08-17T12:23:26.070Z,163.60
2022-08-17T12:24:26.030Z,163.80
2022-08-17T12:25:26.022Z,163.70
2022-08-17T12:26:26.013Z,170.70
2022-08-17T12:28:04.853Z,167.10
2022-08-17T12:28:27.295Z,167.30
2022-08-17T12:29:35.915Z,177.40
2022-08-17T12:30:26.953Z,178.60
2022-08-17T12:31:25.981Z,177.60